sensor_id;sensor_type;location;lat;lon;timestamp;P1;durP1;ratioP1;P2;durP2;ratioP2
67965;SDS011;54749;47.850;9.002;2023-10-19T00:00:36;39.10;;;19.10;;
67965;SDS011;54749;47.850;9.002;2023-10-19T00:03:31;43.73;;;20.60;;
67965;SDS011;54749;47.850;9.002;2023-10-19T00:05:59;45.03;;;20.27;;
67965;SDS011;54749;47.850;9.002;2023-10-19T00:08:26;37.33;;;15.48;;
67965;SDS011;54749;47.850;9.002;2023-10-19T00:11:03;44.00;;;20.50;;
67965;SDS011;54749;47.850;9.002;2023-10-19T00:13:39;33.35;;;16.17;;
67965;SDS011;54749;47.850;9.002;2023-10-19T00:16:07;29.67;;;14.10;;
67965;SDS011;54749;47.850;9.002;2023-10-19T00:18:45;29.70;;;13.98;;
67965;SDS011;54749;47.850;9.002;2023-10-19T00:21:16;27.70;;;14.48;;
67965;SDS011;54749;47.850;9.002;2023-10-19T00:23:54;30.92;;;15.05;;
67965;SDS011;54749;47.850;9.002;2023-10-19T00:26:24;32.55;;;15.05;;
67965;SDS011;54749;47.850;9.002;2023-10-19T00:28:56;28.93;;;13.57;;
67965;SDS011;54749;47.850;9.002;2023-10-19T00:31:25;29.60;;;13.98;;
67965;SDS011;54749;47.850;9.002;2023-10-19T00:33:56;27.75;;;13.05;;
67965;SDS011;54749;47.850;9.002;2023-10-19T00:36:23;26.30;;;12.60;;
67965;SDS011;54749;47.850;9.002;2023-10-19T00:38:52;20.52;;;9.98;;
67965;SDS011;54749;47.850;9.002;2023-10-19T00:41:21;34.03;;;15.80;;
67965;SDS011;54749;47.850;9.002;2023-10-19T00:43:57;29.88;;;13.88;;
67965;SDS011;54749;47.850;9.002;2023-10-19T00:46:39;32.50;;;15.80;;
67965;SDS011;54749;47.850;9.002;2023-10-19T00:49:11;28.73;;;12.85;;
67965;SDS011;54749;47.850;9.002;2023-10-19T00:51:44;25.15;;;12.68;;
67965;SDS011;54749;47.850;9.002;2023-10-19T00:54:17;22.37;;;10.23;;
67965;SDS011;54749;47.850;9.002;2023-10-19T00:57:03;26.08;;;11.80;;
67965;SDS011;54749;47.850;9.002;2023-10-19T00:59:37;22.88;;;11.43;;
67965;SDS011;54749;47.850;9.002;2023-10-19T01:02:10;24.92;;;12.20;;
67965;SDS011;54749;47.850;9.002;2023-10-19T01:04:49;28.05;;;13.85;;
67965;SDS011;54749;47.850;9.002;2023-10-19T01:07:19;37.87;;;17.27;;
67965;SDS011;54749;47.850;9.002;2023-10-19T01:09:49;38.17;;;18.30;;
67965;SDS011;54749;47.850;9.002;2023-10-19T01:12:21;46.05;;;20.40;;
67965;SDS011;54749;47.850;9.002;2023-10-19T01:17:57;34.55;;;16.00;;
67965;SDS011;54749;47.850;9.002;2023-10-19T01:20:26;33.30;;;16.03;;
67965;SDS011;54749;47.850;9.002;2023-10-19T01:31:18;24.40;;;10.98;;
67965;SDS011;54749;47.850;9.002;2023-10-19T01:33:59;24.43;;;12.47;;
67965;SDS011;54749;47.850;9.002;2023-10-19T01:36:34;26.77;;;12.93;;
67965;SDS011;54749;47.850;9.002;2023-10-19T01:39:11;25.98;;;12.38;;
67965;SDS011;54749;47.850;9.002;2023-10-19T01:41:38;28.50;;;13.38;;
67965;SDS011;54749;47.850;9.002;2023-10-19T01:44:08;23.85;;;12.18;;
67965;SDS011;54749;47.850;9.002;2023-10-19T01:46:40;23.17;;;10.97;;
67965;SDS011;54749;47.850;9.002;2023-10-19T01:49:11;25.27;;;11.07;;
67965;SDS011;54749;47.850;9.002;2023-10-19T01:51:38;25.58;;;11.52;;
67965;SDS011;54749;47.850;9.002;2023-10-19T01:54:06;21.25;;;10.45;;
67965;SDS011;54749;47.850;9.002;2023-10-19T01:56:34;21.58;;;9.82;;
67965;SDS011;54749;47.850;9.002;2023-10-19T01:59:03;20.70;;;9.77;;
67965;SDS011;54749;47.850;9.002;2023-10-19T02:01:31;21.00;;;10.00;;
67965;SDS011;54749;47.850;9.002;2023-10-19T02:04:02;25.42;;;11.68;;
67965;SDS011;54749;47.850;9.002;2023-10-19T02:06:33;23.98;;;10.90;;
67965;SDS011;54749;47.850;9.002;2023-10-19T02:09:05;24.60;;;12.00;;
67965;SDS011;54749;47.850;9.002;2023-10-19T02:11:51;30.50;;;14.60;;
67965;SDS011;54749;47.850;9.002;2023-10-19T02:14:20;28.88;;;14.63;;
67965;SDS011;54749;47.850;9.002;2023-10-19T02:16:48;31.63;;;14.45;;
67965;SDS011;54749;47.850;9.002;2023-10-19T02:19:20;33.65;;;13.73;;
67965;SDS011;54749;47.850;9.002;2023-10-19T02:21:48;28.15;;;12.25;;
67965;SDS011;54749;47.850;9.002;2023-10-19T02:24:19;35.27;;;16.40;;
67965;SDS011;54749;47.850;9.002;2023-10-19T02:26:48;26.70;;;12.88;;
67965;SDS011;54749;47.850;9.002;2023-10-19T02:29:18;28.63;;;13.68;;
67965;SDS011;54749;47.850;9.002;2023-10-19T02:31:45;26.15;;;12.05;;
67965;SDS011;54749;47.850;9.002;2023-10-19T02:34:15;30.00;;;14.55;;
67965;SDS011;54749;47.850;9.002;2023-10-19T02:36:43;25.77;;;13.53;;
67965;SDS011;54749;47.850;9.002;2023-10-19T02:39:11;24.20;;;11.77;;
67965;SDS011;54749;47.850;9.002;2023-10-19T02:41:43;26.67;;;12.93;;
67965;SDS011;54749;47.850;9.002;2023-10-19T02:44:14;26.75;;;12.95;;
67965;SDS011;54749;47.850;9.002;2023-10-19T02:46:46;26.77;;;13.18;;
67965;SDS011;54749;47.850;9.002;2023-10-19T02:49:15;31.63;;;15.07;;
67965;SDS011;54749;47.850;9.002;2023-10-19T02:51:47;36.05;;;16.45;;
67965;SDS011;54749;47.850;9.002;2023-10-19T02:54:17;42.70;;;21.15;;
67965;SDS011;54749;47.850;9.002;2023-10-19T02:56:49;36.72;;;18.25;;
67965;SDS011;54749;47.850;9.002;2023-10-19T02:59:21;42.67;;;19.35;;
67965;SDS011;54749;47.850;9.002;2023-10-19T03:01:50;33.63;;;16.13;;
67965;SDS011;54749;47.850;9.002;2023-10-19T03:04:44;31.52;;;15.45;;
67965;SDS011;54749;47.850;9.002;2023-10-19T03:07:13;44.03;;;20.25;;
67965;SDS011;54749;47.850;9.002;2023-10-19T03:09:42;42.60;;;19.90;;
67965;SDS011;54749;47.850;9.002;2023-10-19T03:12:21;32.10;;;15.30;;
67965;SDS011;54749;47.850;9.002;2023-10-19T03:14:52;30.73;;;14.13;;
67965;SDS011;54749;47.850;9.002;2023-10-19T03:17:20;27.33;;;12.77;;
67965;SDS011;54749;47.850;9.002;2023-10-19T03:19:48;24.48;;;11.25;;
67965;SDS011;54749;47.850;9.002;2023-10-19T03:22:15;37.47;;;17.85;;
67965;SDS011;54749;47.850;9.002;2023-10-19T03:24:44;37.72;;;16.98;;
67965;SDS011;54749;47.850;9.002;2023-10-19T03:27:12;30.73;;;15.57;;
67965;SDS011;54749;47.850;9.002;2023-10-19T03:29:46;32.65;;;16.05;;
67965;SDS011;54749;47.850;9.002;2023-10-19T03:32:15;36.20;;;16.73;;
67965;SDS011;54749;47.850;9.002;2023-10-19T03:34:49;28.33;;;12.77;;
67965;SDS011;54749;47.850;9.002;2023-10-19T03:37:18;26.00;;;12.48;;
67965;SDS011;54749;47.850;9.002;2023-10-19T03:39:48;23.87;;;11.60;;
67965;SDS011;54749;47.850;9.002;2023-10-19T03:42:16;25.58;;;10.52;;
67965;SDS011;54749;47.850;9.002;2023-10-19T03:44:43;22.75;;;10.35;;
67965;SDS011;54749;47.850;9.002;2023-10-19T03:47:16;20.48;;;9.63;;
67965;SDS011;54749;47.850;9.002;2023-10-19T03:49:48;21.40;;;9.13;;
67965;SDS011;54749;47.850;9.002;2023-10-19T03:52:19;17.57;;;9.07;;
67965;SDS011;54749;47.850;9.002;2023-10-19T03:54:48;20.17;;;9.40;;
67965;SDS011;54749;47.850;9.002;2023-10-19T03:57:16;20.15;;;9.50;;
67965;SDS011;54749;47.850;9.002;2023-10-19T03:59:52;21.02;;;9.75;;
67965;SDS011;54749;47.850;9.002;2023-10-19T04:02:24;19.08;;;8.93;;
67965;SDS011;54749;47.850;9.002;2023-10-19T04:04:52;18.77;;;8.43;;
67965;SDS011;54749;47.850;9.002;2023-10-19T04:07:25;24.02;;;12.27;;
67965;SDS011;54749;47.850;9.002;2023-10-19T04:09:54;26.60;;;13.35;;
67965;SDS011;54749;47.850;9.002;2023-10-19T04:12:38;23.92;;;11.23;;
67965;SDS011;54749;47.850;9.002;2023-10-19T04:15:10;20.08;;;10.20;;
67965;SDS011;54749;47.850;9.002;2023-10-19T04:17:44;20.77;;;9.53;;
67965;SDS011;54749;47.850;9.002;2023-10-19T04:20:17;21.52;;;10.55;;
67965;SDS011;54749;47.850;9.002;2023-10-19T04:22:45;23.98;;;11.38;;
67965;SDS011;54749;47.850;9.002;2023-10-19T04:25:13;27.85;;;13.32;;
67965;SDS011;54749;47.850;9.002;2023-10-19T04:27:42;25.80;;;12.48;;
67965;SDS011;54749;47.850;9.002;2023-10-19T04:30:11;23.73;;;11.40;;
67965;SDS011;54749;47.850;9.002;2023-10-19T04:32:43;33.55;;;16.38;;
67965;SDS011;54749;47.850;9.002;2023-10-19T04:35:11;34.00;;;15.73;;
67965;SDS011;54749;47.850;9.002;2023-10-19T04:37:51;25.33;;;12.68;;
67965;SDS011;54749;47.850;9.002;2023-10-19T04:40:20;29.83;;;14.48;;
67965;SDS011;54749;47.850;9.002;2023-10-19T04:42:53;39.27;;;18.77;;
67965;SDS011;54749;47.850;9.002;2023-10-19T04:45:22;39.00;;;17.83;;
67965;SDS011;54749;47.850;9.002;2023-10-19T04:47:52;42.47;;;20.25;;
67965;SDS011;54749;47.850;9.002;2023-10-19T04:50:20;37.03;;;17.63;;
67965;SDS011;54749;47.850;9.002;2023-10-19T04:52:47;31.10;;;14.30;;
67965;SDS011;54749;47.850;9.002;2023-10-19T04:55:15;25.93;;;12.30;;
67965;SDS011;54749;47.850;9.002;2023-10-19T04:57:42;26.13;;;11.75;;
67965;SDS011;54749;47.850;9.002;2023-10-19T05:00:09;27.77;;;13.57;;
67965;SDS011;54749;47.850;9.002;2023-10-19T05:02:40;29.30;;;13.23;;
67965;SDS011;54749;47.850;9.002;2023-10-19T05:05:08;30.20;;;14.07;;
67965;SDS011;54749;47.850;9.002;2023-10-19T05:07:36;37.50;;;17.37;;
67965;SDS011;54749;47.850;9.002;2023-10-19T05:10:03;43.05;;;20.23;;
67965;SDS011;54749;47.850;9.002;2023-10-19T05:12:32;37.92;;;17.98;;
67965;SDS011;54749;47.850;9.002;2023-10-19T05:14:59;32.88;;;14.93;;
67965;SDS011;54749;47.850;9.002;2023-10-19T05:17:26;28.05;;;12.10;;
67965;SDS011;54749;47.850;9.002;2023-10-19T05:19:54;31.70;;;15.33;;
67965;SDS011;54749;47.850;9.002;2023-10-19T05:22:23;38.33;;;17.38;;
67965;SDS011;54749;47.850;9.002;2023-10-19T05:24:52;27.33;;;13.82;;
67965;SDS011;54749;47.850;9.002;2023-10-19T05:27:19;29.63;;;13.98;;
67965;SDS011;54749;47.850;9.002;2023-10-19T05:29:47;28.23;;;14.10;;
67965;SDS011;54749;47.850;9.002;2023-10-19T05:32:14;30.03;;;14.93;;
67965;SDS011;54749;47.850;9.002;2023-10-19T05:34:41;31.13;;;14.63;;
67965;SDS011;54749;47.850;9.002;2023-10-19T05:37:09;27.95;;;12.77;;
67965;SDS011;54749;47.850;9.002;2023-10-19T05:39:37;42.35;;;19.67;;
67965;SDS011;54749;47.850;9.002;2023-10-19T05:42:04;47.20;;;21.02;;
67965;SDS011;54749;47.850;9.002;2023-10-19T05:44:32;49.10;;;20.80;;
67965;SDS011;54749;47.850;9.002;2023-10-19T05:47:00;44.85;;;20.10;;
67965;SDS011;54749;47.850;9.002;2023-10-19T05:49:27;44.67;;;20.52;;
67965;SDS011;54749;47.850;9.002;2023-10-19T05:51:58;37.22;;;17.88;;
67965;SDS011;54749;47.850;9.002;2023-10-19T05:54:26;43.42;;;19.27;;
67965;SDS011;54749;47.850;9.002;2023-10-19T05:56:54;44.13;;;19.90;;
67965;SDS011;54749;47.850;9.002;2023-10-19T05:59:21;35.05;;;16.85;;
67965;SDS011;54749;47.850;9.002;2023-10-19T06:01:50;32.95;;;14.00;;
67965;SDS011;54749;47.850;9.002;2023-10-19T06:04:18;35.60;;;16.13;;
67965;SDS011;54749;47.850;9.002;2023-10-19T06:06:47;37.25;;;16.85;;
67965;SDS011;54749;47.850;9.002;2023-10-19T06:09:16;40.13;;;17.77;;
67965;SDS011;54749;47.850;9.002;2023-10-19T06:11:44;33.25;;;15.18;;
67965;SDS011;54749;47.850;9.002;2023-10-19T06:14:12;28.20;;;13.00;;
67965;SDS011;54749;47.850;9.002;2023-10-19T06:16:40;28.17;;;13.88;;
67965;SDS011;54749;47.850;9.002;2023-10-19T06:19:07;34.30;;;16.02;;
67965;SDS011;54749;47.850;9.002;2023-10-19T06:21:36;39.90;;;17.43;;
67965;SDS011;54749;47.850;9.002;2023-10-19T06:24:03;37.28;;;18.35;;
67965;SDS011;54749;47.850;9.002;2023-10-19T06:26:31;33.85;;;16.88;;
67965;SDS011;54749;47.850;9.002;2023-10-19T06:28:58;31.67;;;15.30;;
67965;SDS011;54749;47.850;9.002;2023-10-19T06:31:26;30.23;;;14.40;;
67965;SDS011;54749;47.850;9.002;2023-10-19T06:33:56;32.03;;;15.73;;
67965;SDS011;54749;47.850;9.002;2023-10-19T06:36:25;26.08;;;12.75;;
67965;SDS011;54749;47.850;9.002;2023-10-19T06:38:52;25.30;;;12.18;;
67965;SDS011;54749;47.850;9.002;2023-10-19T06:41:21;26.33;;;12.93;;
67965;SDS011;54749;47.850;9.002;2023-10-19T06:43:49;26.02;;;13.45;;
67965;SDS011;54749;47.850;9.002;2023-10-19T06:46:17;23.90;;;11.33;;
67965;SDS011;54749;47.850;9.002;2023-10-19T06:48:44;42.10;;;20.23;;
67965;SDS011;54749;47.850;9.002;2023-10-19T06:51:12;47.85;;;21.13;;
67965;SDS011;54749;47.850;9.002;2023-10-19T06:53:39;47.75;;;21.55;;
67965;SDS011;54749;47.850;9.002;2023-10-19T06:56:06;45.25;;;20.77;;
67965;SDS011;54749;47.850;9.002;2023-10-19T06:58:33;42.30;;;20.30;;
67965;SDS011;54749;47.850;9.002;2023-10-19T07:01:01;47.45;;;20.85;;
67965;SDS011;54749;47.850;9.002;2023-10-19T07:03:35;47.45;;;21.20;;
67965;SDS011;54749;47.850;9.002;2023-10-19T07:06:03;36.17;;;16.23;;
67965;SDS011;54749;47.850;9.002;2023-10-19T07:08:38;33.80;;;16.23;;
67965;SDS011;54749;47.850;9.002;2023-10-19T07:11:06;31.20;;;14.83;;
67965;SDS011;54749;47.850;9.002;2023-10-19T07:13:34;26.13;;;12.65;;
67965;SDS011;54749;47.850;9.002;2023-10-19T07:16:01;29.50;;;12.88;;
67965;SDS011;54749;47.850;9.002;2023-10-19T07:18:30;24.90;;;11.70;;
67965;SDS011;54749;47.850;9.002;2023-10-19T07:20:58;27.33;;;13.98;;
67965;SDS011;54749;47.850;9.002;2023-10-19T07:23:31;24.97;;;12.13;;
67965;SDS011;54749;47.850;9.002;2023-10-19T07:25:59;25.23;;;12.38;;
67965;SDS011;54749;47.850;9.002;2023-10-19T07:28:29;27.33;;;13.50;;
67965;SDS011;54749;47.850;9.002;2023-10-19T07:30:58;27.23;;;13.45;;
67965;SDS011;54749;47.850;9.002;2023-10-19T07:33:28;24.95;;;12.52;;
67965;SDS011;54749;47.850;9.002;2023-10-19T07:35:56;28.77;;;14.13;;
67965;SDS011;54749;47.850;9.002;2023-10-19T07:38:27;30.15;;;14.63;;
67965;SDS011;54749;47.850;9.002;2023-10-19T07:40:57;30.33;;;14.43;;
67965;SDS011;54749;47.850;9.002;2023-10-19T07:43:24;27.45;;;13.75;;
67965;SDS011;54749;47.850;9.002;2023-10-19T07:45:53;30.02;;;15.15;;
67965;SDS011;54749;47.850;9.002;2023-10-19T07:48:20;26.80;;;12.87;;
67965;SDS011;54749;47.850;9.002;2023-10-19T07:50:47;25.67;;;12.10;;
67965;SDS011;54749;47.850;9.002;2023-10-19T07:53:14;26.35;;;12.90;;
67965;SDS011;54749;47.850;9.002;2023-10-19T07:55:42;32.85;;;14.80;;
67965;SDS011;54749;47.850;9.002;2023-10-19T07:58:10;28.23;;;13.38;;
67965;SDS011;54749;47.850;9.002;2023-10-19T08:00:38;25.70;;;13.33;;
67965;SDS011;54749;47.850;9.002;2023-10-19T08:03:06;26.80;;;14.02;;
67965;SDS011;54749;47.850;9.002;2023-10-19T08:05:34;23.88;;;12.77;;
67965;SDS011;54749;47.850;9.002;2023-10-19T08:08:02;28.35;;;14.82;;
67965;SDS011;54749;47.850;9.002;2023-10-19T08:10:33;24.40;;;12.82;;
67965;SDS011;54749;47.850;9.002;2023-10-19T08:13:03;20.10;;;11.23;;
67965;SDS011;54749;47.850;9.002;2023-10-19T08:15:31;35.17;;;17.75;;
67965;SDS011;54749;47.850;9.002;2023-10-19T08:17:58;25.48;;;14.23;;
67965;SDS011;54749;47.850;9.002;2023-10-19T08:20:25;31.67;;;15.77;;
67965;SDS011;54749;47.850;9.002;2023-10-19T08:22:59;34.28;;;16.05;;
67965;SDS011;54749;47.850;9.002;2023-10-19T08:25:29;26.33;;;12.97;;
67965;SDS011;54749;47.850;9.002;2023-10-19T08:28:16;25.27;;;13.40;;
67965;SDS011;54749;47.850;9.002;2023-10-19T08:30:44;26.17;;;14.00;;
67965;SDS011;54749;47.850;9.002;2023-10-19T08:33:24;24.17;;;12.30;;
67965;SDS011;54749;47.850;9.002;2023-10-19T08:35:57;27.83;;;14.13;;
67965;SDS011;54749;47.850;9.002;2023-10-19T08:38:24;26.23;;;14.20;;
67965;SDS011;54749;47.850;9.002;2023-10-19T08:40:52;27.17;;;13.75;;
67965;SDS011;54749;47.850;9.002;2023-10-19T08:43:20;24.65;;;12.30;;
67965;SDS011;54749;47.850;9.002;2023-10-19T08:45:48;26.98;;;14.27;;
67965;SDS011;54749;47.850;9.002;2023-10-19T08:48:16;27.30;;;14.30;;
67965;SDS011;54749;47.850;9.002;2023-10-19T08:50:43;28.93;;;14.40;;
67965;SDS011;54749;47.850;9.002;2023-10-19T08:53:13;27.85;;;13.82;;
67965;SDS011;54749;47.850;9.002;2023-10-19T08:55:41;26.63;;;13.75;;
67965;SDS011;54749;47.850;9.002;2023-10-19T08:58:15;25.92;;;12.95;;
67965;SDS011;54749;47.850;9.002;2023-10-19T09:00:50;37.13;;;15.73;;
67965;SDS011;54749;47.850;9.002;2023-10-19T09:03:23;25.43;;;13.07;;
67965;SDS011;54749;47.850;9.002;2023-10-19T09:05:53;25.65;;;12.85;;
67965;SDS011;54749;47.850;9.002;2023-10-19T09:08:21;25.17;;;12.48;;
67965;SDS011;54749;47.850;9.002;2023-10-19T09:10:50;24.27;;;13.05;;
67965;SDS011;54749;47.850;9.002;2023-10-19T09:13:21;24.98;;;13.25;;
67965;SDS011;54749;47.850;9.002;2023-10-19T09:15:51;27.27;;;14.23;;
67965;SDS011;54749;47.850;9.002;2023-10-19T09:18:24;24.95;;;12.93;;
67965;SDS011;54749;47.850;9.002;2023-10-19T09:20:56;30.80;;;15.00;;
67965;SDS011;54749;47.850;9.002;2023-10-19T09:23:34;26.08;;;13.88;;
67965;SDS011;54749;47.850;9.002;2023-10-19T09:26:04;23.73;;;12.38;;
67965;SDS011;54749;47.850;9.002;2023-10-19T09:28:36;24.10;;;13.20;;
67965;SDS011;54749;47.850;9.002;2023-10-19T09:31:05;24.00;;;13.27;;
67965;SDS011;54749;47.850;9.002;2023-10-19T09:33:37;28.10;;;15.23;;
67965;SDS011;54749;47.850;9.002;2023-10-19T09:36:08;28.25;;;14.98;;
67965;SDS011;54749;47.850;9.002;2023-10-19T09:41:20;29.60;;;15.70;;
67965;SDS011;54749;47.850;9.002;2023-10-19T09:43:49;25.83;;;13.27;;
67965;SDS011;54749;47.850;9.002;2023-10-19T09:46:27;27.48;;;14.10;;
67965;SDS011;54749;47.850;9.002;2023-10-19T09:48:58;25.95;;;14.25;;
67965;SDS011;54749;47.850;9.002;2023-10-19T09:51:26;31.10;;;16.40;;
67965;SDS011;54749;47.850;9.002;2023-10-19T09:54:00;34.23;;;17.97;;
67965;SDS011;54749;47.850;9.002;2023-10-19T09:56:37;33.72;;;18.50;;
67965;SDS011;54749;47.850;9.002;2023-10-19T09:59:15;38.10;;;19.48;;
67965;SDS011;54749;47.850;9.002;2023-10-19T10:02:09;30.40;;;15.82;;
67965;SDS011;54749;47.850;9.002;2023-10-19T10:04:41;36.92;;;17.77;;
67965;SDS011;54749;47.850;9.002;2023-10-19T10:07:09;36.00;;;18.27;;
67965;SDS011;54749;47.850;9.002;2023-10-19T10:09:37;38.40;;;20.10;;
67965;SDS011;54749;47.850;9.002;2023-10-19T10:12:23;37.88;;;20.17;;
67965;SDS011;54749;47.850;9.002;2023-10-19T10:14:54;38.90;;;19.25;;
67965;SDS011;54749;47.850;9.002;2023-10-19T10:17:26;39.60;;;18.38;;
67965;SDS011;54749;47.850;9.002;2023-10-19T10:19:55;28.80;;;14.40;;
67965;SDS011;54749;47.850;9.002;2023-10-19T10:22:24;25.35;;;13.43;;
67965;SDS011;54749;47.850;9.002;2023-10-19T10:24:53;54.45;;;21.92;;
67965;SDS011;54749;47.850;9.002;2023-10-19T10:27:23;57.78;;;23.73;;
67965;SDS011;54749;47.850;9.002;2023-10-19T10:29:54;38.20;;;17.42;;
67965;SDS011;54749;47.850;9.002;2023-10-19T10:32:46;35.93;;;17.50;;
67965;SDS011;54749;47.850;9.002;2023-10-19T10:38:09;30.85;;;15.20;;
67965;SDS011;54749;47.850;9.002;2023-10-19T10:40:44;31.77;;;16.90;;
67965;SDS011;54749;47.850;9.002;2023-10-19T10:43:12;26.20;;;14.43;;
67965;SDS011;54749;47.850;9.002;2023-10-19T10:45:39;23.37;;;12.47;;
67965;SDS011;54749;47.850;9.002;2023-10-19T10:48:13;25.42;;;13.48;;
67965;SDS011;54749;47.850;9.002;2023-10-19T10:50:44;27.33;;;15.77;;
67965;SDS011;54749;47.850;9.002;2023-10-19T10:53:13;25.35;;;13.10;;
67965;SDS011;54749;47.850;9.002;2023-10-19T10:55:44;25.90;;;14.18;;
67965;SDS011;54749;47.850;9.002;2023-10-19T10:58:16;25.03;;;12.87;;
67965;SDS011;54749;47.850;9.002;2023-10-19T11:00:44;22.45;;;11.75;;
67965;SDS011;54749;47.850;9.002;2023-10-19T11:03:18;23.05;;;12.05;;
67965;SDS011;54749;47.850;9.002;2023-10-19T11:05:46;22.55;;;11.82;;
67965;SDS011;54749;47.850;9.002;2023-10-19T11:08:14;24.42;;;12.88;;
67965;SDS011;54749;47.850;9.002;2023-10-19T11:10:47;21.33;;;12.10;;
67965;SDS011;54749;47.850;9.002;2023-10-19T11:13:17;21.70;;;12.52;;
67965;SDS011;54749;47.850;9.002;2023-10-19T11:15:50;20.42;;;12.52;;
67965;SDS011;54749;47.850;9.002;2023-10-19T11:18:28;18.38;;;10.95;;
67965;SDS011;54749;47.850;9.002;2023-10-19T11:20:55;25.00;;;14.27;;
67965;SDS011;54749;47.850;9.002;2023-10-19T11:26:03;20.77;;;12.52;;
67965;SDS011;54749;47.850;9.002;2023-10-19T11:28:33;23.15;;;13.05;;
67965;SDS011;54749;47.850;9.002;2023-10-19T11:31:10;21.77;;;14.25;;
67965;SDS011;54749;47.850;9.002;2023-10-19T11:33:40;18.50;;;11.57;;
67965;SDS011;54749;47.850;9.002;2023-10-19T11:36:09;18.80;;;11.00;;
67965;SDS011;54749;47.850;9.002;2023-10-19T11:38:40;18.55;;;10.68;;
67965;SDS011;54749;47.850;9.002;2023-10-19T11:41:08;23.90;;;13.82;;
67965;SDS011;54749;47.850;9.002;2023-10-19T11:43:35;20.23;;;12.73;;
67965;SDS011;54749;47.850;9.002;2023-10-19T11:46:02;18.27;;;10.93;;
67965;SDS011;54749;47.850;9.002;2023-10-19T11:48:35;20.47;;;12.07;;
67965;SDS011;54749;47.850;9.002;2023-10-19T11:51:03;20.13;;;11.57;;
67965;SDS011;54749;47.850;9.002;2023-10-19T11:53:32;22.80;;;13.40;;
67965;SDS011;54749;47.850;9.002;2023-10-19T11:56:04;22.38;;;13.35;;
67965;SDS011;54749;47.850;9.002;2023-10-19T11:58:33;28.02;;;15.60;;
67965;SDS011;54749;47.850;9.002;2023-10-19T12:01:01;25.80;;;14.63;;
67965;SDS011;54749;47.850;9.002;2023-10-19T12:03:35;36.92;;;21.98;;
67965;SDS011;54749;47.850;9.002;2023-10-19T12:06:04;26.67;;;16.42;;
67965;SDS011;54749;47.850;9.002;2023-10-19T12:08:33;23.90;;;14.00;;
67965;SDS011;54749;47.850;9.002;2023-10-19T12:11:01;27.10;;;14.85;;
67965;SDS011;54749;47.850;9.002;2023-10-19T12:13:31;26.30;;;14.50;;
67965;SDS011;54749;47.850;9.002;2023-10-19T12:15:59;23.60;;;12.90;;
67965;SDS011;54749;47.850;9.002;2023-10-19T12:18:26;24.05;;;13.88;;
67965;SDS011;54749;47.850;9.002;2023-10-19T12:20:55;22.70;;;12.38;;
67965;SDS011;54749;47.850;9.002;2023-10-19T12:23:26;21.20;;;12.48;;
67965;SDS011;54749;47.850;9.002;2023-10-19T12:25:53;27.30;;;14.97;;
67965;SDS011;54749;47.850;9.002;2023-10-19T12:28:24;27.88;;;14.38;;
67965;SDS011;54749;47.850;9.002;2023-10-19T12:30:52;26.42;;;15.25;;
67965;SDS011;54749;47.850;9.002;2023-10-19T12:33:20;25.35;;;13.68;;
67965;SDS011;54749;47.850;9.002;2023-10-19T12:35:47;26.38;;;16.25;;
67965;SDS011;54749;47.850;9.002;2023-10-19T12:38:40;32.13;;;17.20;;
67965;SDS011;54749;47.850;9.002;2023-10-19T12:41:07;26.38;;;14.10;;
67965;SDS011;54749;47.850;9.002;2023-10-19T12:43:36;27.13;;;14.70;;
67965;SDS011;54749;47.850;9.002;2023-10-19T12:46:03;23.17;;;13.60;;
67965;SDS011;54749;47.850;9.002;2023-10-19T12:48:30;22.75;;;12.60;;
67965;SDS011;54749;47.850;9.002;2023-10-19T12:51:04;20.90;;;12.37;;
67965;SDS011;54749;47.850;9.002;2023-10-19T12:53:34;24.63;;;13.13;;
67965;SDS011;54749;47.850;9.002;2023-10-19T12:56:01;23.75;;;13.10;;
67965;SDS011;54749;47.850;9.002;2023-10-19T12:58:30;22.85;;;12.82;;
67965;SDS011;54749;47.850;9.002;2023-10-19T13:00:58;21.48;;;12.70;;
67965;SDS011;54749;47.850;9.002;2023-10-19T13:03:26;21.40;;;11.43;;
67965;SDS011;54749;47.850;9.002;2023-10-19T13:05:55;22.80;;;13.05;;
67965;SDS011;54749;47.850;9.002;2023-10-19T13:08:25;26.73;;;14.85;;
67965;SDS011;54749;47.850;9.002;2023-10-19T13:10:54;28.08;;;15.10;;
67965;SDS011;54749;47.850;9.002;2023-10-19T13:13:38;23.70;;;13.30;;
67965;SDS011;54749;47.850;9.002;2023-10-19T13:16:06;22.83;;;12.83;;
67965;SDS011;54749;47.850;9.002;2023-10-19T13:18:36;20.95;;;12.00;;
67965;SDS011;54749;47.850;9.002;2023-10-19T13:21:03;23.17;;;13.45;;
67965;SDS011;54749;47.850;9.002;2023-10-19T13:23:32;25.27;;;13.40;;
67965;SDS011;54749;47.850;9.002;2023-10-19T13:26:05;24.83;;;13.65;;
67965;SDS011;54749;47.850;9.002;2023-10-19T13:28:42;23.50;;;12.70;;
67965;SDS011;54749;47.850;9.002;2023-10-19T13:31:10;25.92;;;13.75;;
67965;SDS011;54749;47.850;9.002;2023-10-19T13:33:40;22.45;;;12.20;;
67965;SDS011;54749;47.850;9.002;2023-10-19T13:36:13;17.90;;;9.88;;
67965;SDS011;54749;47.850;9.002;2023-10-19T13:38:41;19.92;;;10.20;;
67965;SDS011;54749;47.850;9.002;2023-10-19T13:41:08;17.70;;;9.73;;
67965;SDS011;54749;47.850;9.002;2023-10-19T13:43:39;17.45;;;9.40;;
67965;SDS011;54749;47.850;9.002;2023-10-19T13:46:06;16.27;;;8.90;;
67965;SDS011;54749;47.850;9.002;2023-10-19T13:48:34;16.92;;;9.02;;
67965;SDS011;54749;47.850;9.002;2023-10-19T13:51:01;15.32;;;8.82;;
67965;SDS011;54749;47.850;9.002;2023-10-19T13:53:39;14.73;;;8.57;;
67965;SDS011;54749;47.850;9.002;2023-10-19T13:56:07;16.17;;;8.38;;
67965;SDS011;54749;47.850;9.002;2023-10-19T13:58:38;16.30;;;9.55;;
67965;SDS011;54749;47.850;9.002;2023-10-19T14:01:06;14.15;;;7.82;;
67965;SDS011;54749;47.850;9.002;2023-10-19T14:03:37;15.35;;;8.50;;
67965;SDS011;54749;47.850;9.002;2023-10-19T14:06:05;15.47;;;8.63;;
67965;SDS011;54749;47.850;9.002;2023-10-19T14:08:38;16.42;;;9.70;;
67965;SDS011;54749;47.850;9.002;2023-10-19T14:11:05;17.65;;;9.80;;
67965;SDS011;54749;47.850;9.002;2023-10-19T14:13:34;19.50;;;9.10;;
67965;SDS011;54749;47.850;9.002;2023-10-19T14:16:06;16.02;;;8.52;;
67965;SDS011;54749;47.850;9.002;2023-10-19T14:18:36;14.83;;;8.70;;
67965;SDS011;54749;47.850;9.002;2023-10-19T14:21:10;15.70;;;8.43;;
67965;SDS011;54749;47.850;9.002;2023-10-19T14:23:39;15.95;;;8.65;;
67965;SDS011;54749;47.850;9.002;2023-10-19T14:26:08;16.55;;;9.55;;
67965;SDS011;54749;47.850;9.002;2023-10-19T14:28:36;15.30;;;9.30;;
67965;SDS011;54749;47.850;9.002;2023-10-19T14:31:03;13.93;;;8.10;;
67965;SDS011;54749;47.850;9.002;2023-10-19T14:33:31;14.93;;;8.43;;
67965;SDS011;54749;47.850;9.002;2023-10-19T14:35:59;13.57;;;7.90;;
67965;SDS011;54749;47.850;9.002;2023-10-19T14:38:27;15.40;;;8.50;;
67965;SDS011;54749;47.850;9.002;2023-10-19T14:40:54;19.73;;;10.60;;
67965;SDS011;54749;47.850;9.002;2023-10-19T14:43:21;14.43;;;8.40;;
67965;SDS011;54749;47.850;9.002;2023-10-19T14:45:49;13.63;;;7.80;;
67965;SDS011;54749;47.850;9.002;2023-10-19T14:48:16;15.90;;;8.98;;
67965;SDS011;54749;47.850;9.002;2023-10-19T14:50:46;14.18;;;8.43;;
67965;SDS011;54749;47.850;9.002;2023-10-19T14:53:14;15.50;;;8.40;;
67965;SDS011;54749;47.850;9.002;2023-10-19T14:55:43;14.93;;;8.60;;
67965;SDS011;54749;47.850;9.002;2023-10-19T14:58:11;13.18;;;7.60;;
67965;SDS011;54749;47.850;9.002;2023-10-19T15:00:38;12.90;;;6.70;;